createdAt,value
2019-01-14T00:00:04.728Z,22.6
2019-01-14T00:00:54.991Z,22.6
2019-01-14T00:01:45.046Z,22.6
2019-01-14T00:02:35.094Z,22.6
2019-01-14T00:03:25.171Z,22.6
2019-01-14T00:04:15.018Z,22.6
2019-01-14T00:05:05.201Z,22.6
2019-01-14T00:05:55.126Z,22.6
2019-01-14T00:06:45.180Z,22.6
2019-01-14T00:07:35.025Z,22.6
2019-01-14T00:08:25.024Z,22.6
2019-01-14T00:09:15.369Z,22.6
2019-01-14T00:10:05.408Z,22.6
2019-01-14T00:10:55.938Z,22.6
2019-01-14T00:11:46.008Z,22.6
2019-01-14T00:12:35.803Z,22.6
2019-01-14T00:13:25.838Z,22.6
2019-01-14T00:14:15.875Z,22.6
2019-01-14T00:15:05.978Z,22.6
2019-01-14T00:15:55.785Z,22.6
2019-01-14T00:16:46.416Z,22.6
2019-01-14T00:17:36.125Z,22.6
2019-01-14T00:18:26.467Z,22.6
2019-01-14T00:19:16.503Z,22.7
2019-01-14T00:20:05.861Z,22.6
2019-01-14T00:20:56.345Z,22.6
2019-01-14T00:21:46.405Z,22.6
2019-01-14T00:22:35.892Z,22.6
2019-01-14T00:23:26.850Z,22.5
2019-01-14T00:24:16.596Z,22.5
2019-01-14T00:25:07.099Z,22.5
2019-01-14T00:25:56.697Z,22.5
2019-01-14T00:26:46.748Z,22.4
2019-01-14T00:27:37.129Z,22.4
2019-01-14T00:28:26.567Z,22.4
2019-01-14T00:29:17.187Z,22.4
2019-01-14T00:30:06.704Z,22.4
2019-01-14T00:30:57.037Z,22.4
2019-01-14T00:31:47.359Z,22.4
2019-01-14T00:32:38.197Z,22.4
2019-01-14T00:33:27.517Z,22.4
2019-01-14T00:34:17.542Z,22.4
2019-01-14T00:35:07.321Z,22.4
2019-01-14T00:35:57.439Z,22.4
2019-01-14T00:36:47.200Z,22.4
2019-01-14T00:37:37.481Z,22.4
2019-01-14T00:38:27.341Z,22.5
2019-01-14T00:39:17.377Z,22.5
2019-01-14T00:40:07.449Z,22.5
2019-01-14T00:40:57.009Z,22.4
2019-01-14T00:41:47.576Z,22.5
2019-01-14T00:42:37.326Z,22.5
2019-01-14T00:43:27.606Z,22.5
2019-01-14T00:44:17.713Z,22.5
2019-01-14T00:45:07.736Z,22.5
2019-01-14T00:45:58.331Z,22.5
2019-01-14T00:46:48.371Z,22.5
2019-01-14T00:47:40.128Z,22.4
2019-01-14T00:48:28.518Z,22.4
2019-01-14T00:49:18.019Z,22.4
2019-01-14T00:50:08.053Z,22.4
2019-01-14T00:50:58.371Z,22.3
2019-01-14T00:51:48.158Z,22.3
2019-01-14T00:52:38.500Z,22.3
2019-01-14T00:53:28.570Z,22.3
2019-01-14T00:54:18.398Z,22.3
2019-01-14T00:55:08.398Z,22.3
2019-01-14T00:55:58.708Z,22.3
2019-01-14T00:56:48.773Z,22.3
2019-01-14T00:57:39.100Z,22.3
2019-01-14T00:58:28.638Z,22.4
2019-01-14T00:59:18.120Z,22.4
2019-01-14T01:00:09.004Z,22.4
2019-01-14T01:00:59.340Z,22.4
2019-01-14T01:01:49.448Z,22.4
2019-01-14T01:02:39.454Z,22.4
2019-01-14T01:03:28.950Z,22.4
2019-01-14T01:04:19.317Z,22.4
2019-01-14T01:05:09.103Z,22.4
2019-01-14T01:05:59.710Z,22.4
2019-01-14T01:06:49.187Z,22.5
2019-01-14T01:07:38.675Z,22.5
2019-01-14T01:08:29.630Z,22.5
2019-01-14T01:09:19.058Z,22.5
2019-01-14T01:10:10.057Z,22.5
2019-01-14T01:10:59.457Z,22.5
2019-01-14T01:11:48.686Z,22.5
2019-01-14T01:12:41.246Z,22.5
2019-01-14T01:13:29.964Z,22.5
2019-01-14T01:14:20.280Z,22.5
2019-01-14T01:15:10.302Z,22.5
2019-01-14T01:15:59.789Z,22.5
2019-01-14T01:16:50.137Z,22.5
2019-01-14T01:17:40.474Z,22.5
2019-01-14T01:18:30.509Z,22.5
2019-01-14T01:19:20.314Z,22.5
2019-01-14T01:20:09.802Z,22.5
2019-01-14T01:20:59.836Z,22.5
2019-01-14T01:21:50.169Z,22.5
2019-01-14T01:22:40.519Z,22.5
2019-01-14T01:23:30.298Z,22.5
2019-01-14T01:24:20.626Z,22.5
2019-01-14T01:25:10.953Z,22.5
2019-01-14T01:26:00.228Z,22.5
2019-01-14T01:26:51.124Z,22.5
2019-01-14T01:27:40.633Z,22.4
2019-01-14T01:28:31.184Z,22.4
2019-01-14T01:29:20.953Z,22.4
2019-01-14T01:30:10.578Z,22.4
2019-01-14T01:31:00.870Z,22.4
2019-01-14T01:31:50.661Z,22.3
2019-01-14T01:32:40.716Z,22.3
2019-01-14T01:33:31.050Z,22.3
2019-01-14T01:34:21.088Z,22.3
2019-01-14T01:35:11.646Z,22.3
2019-01-14T01:36:01.150Z,22.3
2019-01-14T01:36:51.758Z,22.3
2019-01-14T01:37:41.540Z,22.3
2019-01-14T01:38:31.620Z,22.3
2019-01-14T01:39:21.646Z,22.3
2019-01-14T01:40:11.409Z,22.3
2019-01-14T01:41:03.282Z,22.3
2019-01-14T01:41:51.602Z,22.3
2019-01-14T01:42:41.860Z,22.4
2019-01-14T01:43:31.940Z,22.4
2019-01-14T01:44:22.255Z,22.4
2019-01-14T01:45:13.727Z,22.4
2019-01-14T01:46:02.145Z,22.3
2019-01-14T01:46:51.877Z,22.3
2019-01-14T01:47:42.230Z,22.4
2019-01-14T01:48:31.989Z,22.4
2019-01-14T01:49:22.315Z,22.4
2019-01-14T01:50:12.157Z,22.4
2019-01-14T01:51:02.730Z,22.4
2019-01-14T01:51:52.534Z,22.4
2019-01-14T01:52:42.629Z,22.4
2019-01-14T01:53:32.610Z,22.4
2019-01-14T01:54:22.398Z,22.4
2019-01-14T01:55:12.487Z,22.4
2019-01-14T03:08:51.047Z,22.3
2019-01-14T03:09:40.838Z,22.3
2019-01-14T03:10:30.905Z,22.3
2019-01-14T03:11:20.677Z,22.3
2019-01-14T03:12:10.590Z,22.3
2019-01-14T03:13:01.141Z,22.3
2019-01-14T03:13:51.192Z,22.3
2019-01-14T03:14:41.520Z,22.3
2019-01-14T03:15:31.218Z,22.3
2019-01-14T03:16:21.548Z,22.3
2019-01-14T03:17:11.691Z,22.3
2019-01-14T03:18:01.392Z,22.3
2019-01-14T03:18:51.814Z,22.3
2019-01-14T03:19:41.037Z,22.3
2019-01-14T03:20:31.314Z,22.3
2019-01-14T03:21:21.613Z,22.3
2019-01-14T03:22:11.998Z,22.3
2019-01-14T03:23:01.456Z,22.3
2019-01-14T03:23:51.621Z,22.3
2019-01-14T03:24:42.157Z,22.4
2019-01-14T03:25:31.736Z,22.4
2019-01-14T03:26:21.766Z,22.4
2019-01-14T03:27:12.311Z,22.4
2019-01-14T03:28:02.065Z,22.3
2019-01-14T03:28:51.931Z,22.3
2019-01-14T03:29:42.498Z,22.3
2019-01-14T03:30:32.380Z,22.3
2019-01-14T03:31:22.141Z,22.3
2019-01-14T03:32:12.769Z,22.1
2019-01-14T03:33:02.117Z,22.1
2019-01-14T03:33:52.750Z,22.1
2019-01-14T03:34:42.525Z,22.1
2019-01-14T03:35:32.307Z,22.1
2019-01-14T03:36:22.342Z,22.1
2019-01-14T03:37:13.077Z,22.1
2019-01-14T03:38:03.043Z,22.2
2019-01-14T03:38:52.781Z,22.2
2019-01-14T03:39:42.636Z,22.3
2019-01-14T03:40:32.932Z,22.3
2019-01-14T03:41:23.010Z,22.3
2019-01-14T03:42:13.365Z,22.3
2019-01-14T03:43:02.809Z,22.3
2019-01-14T03:43:53.148Z,22.3
2019-01-14T03:44:42.667Z,22.3
2019-01-14T03:45:33.530Z,22.3
2019-01-14T03:46:23.302Z,22.3
2019-01-14T03:47:13.699Z,22.3
2019-01-14T03:48:03.764Z,22.2
2019-01-14T03:48:53.559Z,22.3
2019-01-14T03:49:43.252Z,22.3
2019-01-14T03:50:32.869Z,22.3
2019-01-14T03:51:23.646Z,22.3
2019-01-14T03:52:14.009Z,22.3
2019-01-14T03:53:03.587Z,22.3
2019-01-14T03:53:53.874Z,22.3
2019-01-14T03:54:43.856Z,22.3
2019-01-14T03:55:33.719Z,22.3
2019-01-14T03:56:24.259Z,22.3
2019-01-14T03:57:14.060Z,22.3
2019-01-14T03:58:03.642Z,22.3
2019-01-14T03:58:53.863Z,22.3
2019-01-14T03:59:43.947Z,22.3
2019-01-14T04:00:34.556Z,22.3
2019-01-14T04:01:23.757Z,22.3
2019-01-14T04:02:14.675Z,22.3
2019-01-14T04:03:04.383Z,22.3
2019-01-14T04:03:54.816Z,22.3
2019-01-14T04:04:44.586Z,22.3
2019-01-14T04:05:34.636Z,22.3
2019-01-14T04:06:24.671Z,22.3
2019-01-14T04:07:20.766Z,22.3
2019-01-14T04:08:04.750Z,22.4
2019-01-14T04:08:54.855Z,22.4
2019-01-14T04:09:44.891Z,22.4
2019-01-14T04:10:34.687Z,22.4
2019-01-14T04:11:24.460Z,22.4
2019-01-14T04:12:14.799Z,22.3
2019-01-14T04:13:05.130Z,22.4
2019-01-14T04:13:55.237Z,22.4
2019-01-14T04:14:44.387Z,22.4
2019-01-14T04:15:35.288Z,22.4
2019-01-14T04:16:25.038Z,22.4
2019-01-14T04:17:15.460Z,22.3
2019-01-14T04:18:05.472Z,22.3
2019-01-14T04:18:54.697Z,22.3
2019-01-14T04:19:45.025Z,22.3
2019-01-14T04:20:35.354Z,22.2
2019-01-14T04:21:25.457Z,22.3
2019-01-14T04:22:15.162Z,22.2
2019-01-14T04:23:07.520Z,22.2
2019-01-14T04:23:55.360Z,22.2
2019-01-14T04:24:46.197Z,22.2
2019-01-14T04:25:36.205Z,22.2
2019-01-14T04:26:25.737Z,22.2
2019-01-14T04:27:16.362Z,22.3
2019-01-14T04:28:05.624Z,22.3
2019-01-14T04:28:56.210Z,22.3
2019-01-14T04:29:46.249Z,22.3
2019-01-14T04:30:36.329Z,22.3
2019-01-14T04:31:26.459Z,22.3
2019-01-14T04:32:16.421Z,22.3
2019-01-14T04:33:06.449Z,22.3
2019-01-14T04:33:56.810Z,22.3
2019-01-14T04:34:46.910Z,22.3
2019-01-14T04:35:36.062Z,22.3
2019-01-14T04:36:26.722Z,22.3
2019-01-14T04:37:24.816Z,22.3
2019-01-14T04:38:06.558Z,22.3
2019-01-14T04:38:56.848Z,22.3
2019-01-14T04:39:47.223Z,22.3
2019-01-14T04:40:36.997Z,22.3
2019-01-14T04:41:27.061Z,22.3
2019-01-14T04:42:17.183Z,22.3
2019-01-14T04:43:07.297Z,22.3
2019-01-14T04:43:56.919Z,22.3
2019-01-14T04:44:47.502Z,22.3
2019-01-14T04:45:37.329Z,22.3
2019-01-14T04:46:26.815Z,22.3
2019-01-14T04:47:16.841Z,22.3
2019-01-14T04:48:07.243Z,22.3
2019-01-14T04:48:57.893Z,22.2
2019-01-14T04:49:47.613Z,22.2
2019-01-14T04:50:37.219Z,22.2
2019-01-14T04:51:27.421Z,22.1
2019-01-14T04:52:17.778Z,22.1
2019-01-14T04:53:07.563Z,22.1
2019-01-14T04:53:57.905Z,22.1
2019-01-14T04:54:48.187Z,22.1
2019-01-14T04:55:37.429Z,22.1
2019-01-14T04:56:28.372Z,22.1
2019-01-14T04:57:17.577Z,22.1
2019-01-14T04:58:07.983Z,22.1
2019-01-14T04:58:58.478Z,22.1
2019-01-14T04:59:47.715Z,22.2
2019-01-14T05:00:38.330Z,22.2
2019-01-14T05:01:28.680Z,22.2
2019-01-14T05:02:18.802Z,22.1
2019-01-14T05:03:08.265Z,22.1
2019-01-14T05:03:58.570Z,21.9
2019-01-14T05:04:48.330Z,21.8
2019-01-14T05:05:38.672Z,21.7
2019-01-14T05:06:27.993Z,21.6
2019-01-14T05:07:18.479Z,21.6
2019-01-14T05:08:08.879Z,21.4
2019-01-14T05:08:58.611Z,21.4
2019-01-14T05:09:48.407Z,21.4
2019-01-14T05:10:38.785Z,21.4
2019-01-14T05:11:29.379Z,21.4
2019-01-14T05:12:18.604Z,21.4
2019-01-14T05:13:09.199Z,21.4
2019-01-14T05:13:59.241Z,21.4
2019-01-14T05:14:48.448Z,21.4
2019-01-14T05:15:41.066Z,21.4
2019-01-14T05:16:29.396Z,21.4
2019-01-14T05:17:19.189Z,21.4
2019-01-14T05:18:09.501Z,21.3
2019-01-14T05:18:59.286Z,21.3
2019-01-14T05:19:49.893Z,21.3
2019-01-14T05:20:39.651Z,21.2
2019-01-14T05:21:29.564Z,21.2
2019-01-14T05:26:29.572Z,21.1
2019-01-14T05:27:19.932Z,21.1
2019-01-14T05:28:09.242Z,21.1
2019-01-14T05:28:58.900Z,21
2019-01-14T05:29:49.778Z,21
2019-01-14T05:30:39.572Z,21
2019-01-14T05:31:29.639Z,21
2019-01-14T05:32:20.777Z,20.9
2019-01-14T05:33:10.141Z,21
2019-01-14T05:34:00.274Z,21
2019-01-14T05:34:50.424Z,20.9
2019-01-14T05:35:40.704Z,20.9
2019-01-14T05:36:30.844Z,20.9
2019-01-14T05:37:20.795Z,20.9
2019-01-14T05:38:10.847Z,20.9
2019-01-14T05:39:00.908Z,20.9
2019-01-14T05:39:51.218Z,20.9
2019-01-14T05:40:41.116Z,20.9
2019-01-14T05:41:30.791Z,20.9
2019-01-14T05:42:20.866Z,20.9
2019-01-14T05:43:11.420Z,20.9
2019-01-14T05:44:00.392Z,20.8
2019-01-14T05:44:51.296Z,20.8
2019-01-14T05:45:41.089Z,20.7
2019-01-14T05:46:31.661Z,20.7
2019-01-14T05:47:20.673Z,20.6
2019-01-14T05:48:11.889Z,20.6
2019-01-14T05:49:01.818Z,20.6
2019-01-14T05:49:51.328Z,20.5
2019-01-14T05:50:41.471Z,20.5
2019-01-14T05:51:31.713Z,20.4
2019-01-14T05:52:21.806Z,20.5
2019-01-14T05:53:12.112Z,20.5
2019-01-14T05:54:02.160Z,20.6
2019-01-14T05:54:51.950Z,20.5
2019-01-14T05:55:42.291Z,20.6
2019-01-14T05:56:31.778Z,20.6
2019-01-14T05:57:22.160Z,20.6
2019-01-14T05:58:12.470Z,20.6
2019-01-14T05:59:02.210Z,20.6
2019-01-14T05:59:52.345Z,20.6
2019-01-14T06:00:42.117Z,20.6
2019-01-14T06:01:32.148Z,20.6
2019-01-14T06:02:22.440Z,20.5
2019-01-14T06:03:12.805Z,20.5
2019-01-14T06:04:02.892Z,20.5
2019-01-14T06:04:52.322Z,20.5
2019-01-14T06:06:50.862Z,20.5
2019-01-14T06:07:48.255Z,20.4
2019-01-14T06:08:30.790Z,20.4
2019-01-14T06:09:20.822Z,20.4
2019-01-14T06:10:11.163Z,20.4
2019-01-14T06:11:01.162Z,20.4
2019-01-14T06:11:51.239Z,20.4
2019-01-14T06:12:41.325Z,20.5
2019-01-14T06:13:31.386Z,20.5
2019-01-14T06:14:21.386Z,20.5
2019-01-14T06:15:11.495Z,20.6
2019-01-14T06:16:00.794Z,20.7
2019-01-14T06:16:50.852Z,20.8
2019-01-14T06:17:41.121Z,20.9
2019-01-14T06:18:31.239Z,20.9
2019-01-14T06:19:21.239Z,20.9
2019-01-14T06:20:11.006Z,20.9
2019-01-14T06:21:01.059Z,20.9
2019-01-14T06:21:51.209Z,20.9
2019-01-14T06:22:41.228Z,20.9
2019-01-14T06:23:31.518Z,20.9
2019-01-14T06:24:20.758Z,20.9
2019-01-14T06:25:11.460Z,21
2019-01-14T06:26:01.750Z,21.1
2019-01-14T06:26:51.181Z,21.1
2019-01-14T06:27:41.563Z,21.1
2019-01-14T06:28:31.058Z,21.1
2019-01-14T06:29:21.623Z,21.1
2019-01-14T06:30:11.955Z,21.1
2019-01-14T06:31:00.973Z,21
2019-01-14T06:31:51.316Z,21
2019-01-14T06:32:41.380Z,21
2019-01-14T06:33:31.710Z,21
2019-01-14T06:34:21.882Z,21
2019-01-14T06:35:11.778Z,21
2019-01-14T06:36:03.654Z,21.1
2019-01-14T06:36:51.678Z,21.1
2019-01-14T06:38:31.542Z,21.1
2019-01-14T06:39:22.565Z,21.1
2019-01-14T06:40:12.855Z,21.1
2019-01-14T06:41:02.693Z,21.1
2019-01-14T06:41:53.202Z,21.1
2019-01-14T06:42:42.852Z,21.1
2019-01-14T06:43:33.307Z,21.1
2019-01-14T06:44:23.442Z,21.1
2019-01-14T06:45:13.244Z,21.1
2019-01-14T06:46:03.507Z,21.1
2019-01-14T06:46:53.071Z,21
2019-01-14T06:47:43.357Z,21
2019-01-14T06:48:34.557Z,21
2019-01-14T06:49:22.482Z,21
2019-01-14T06:50:13.029Z,21
2019-01-14T06:51:03.365Z,20.9
2019-01-14T06:51:53.172Z,21
2019-01-14T06:52:43.205Z,20.9
2019-01-14T06:53:33.534Z,21
2019-01-14T06:54:23.319Z,21.1
2019-01-14T06:56:03.691Z,21.2
2019-01-14T06:56:53.768Z,21.3
2019-01-14T06:57:43.851Z,21.3
2019-01-14T06:58:33.576Z,21.4
2019-01-14T06:59:23.931Z,21.4
2019-01-14T07:00:13.184Z,21.4
2019-01-14T07:01:04.086Z,21.4
2019-01-14T07:01:54.088Z,21.3
2019-01-14T07:02:43.349Z,21.3
2019-01-14T07:03:33.660Z,21.3
2019-01-14T07:04:23.727Z,21.3
2019-01-14T07:06:50.385Z,21.3
2019-01-14T07:07:39.928Z,21.3
2019-01-14T07:08:29.975Z,21.3
2019-01-14T07:09:20.539Z,21.2
2019-01-14T07:10:10.314Z,21.2
2019-01-14T07:11:00.079Z,21.2
2019-01-14T07:12:40.742Z,21.1
2019-01-14T07:13:30.551Z,21
2019-01-14T07:14:20.579Z,21
2019-01-14T07:15:10.629Z,20.9
2019-01-14T07:16:00.964Z,20.9
2019-01-14T07:16:50.821Z,20.9
2019-01-14T07:17:40.802Z,20.9
2019-01-14T07:18:30.886Z,20.9
2019-01-14T07:19:20.651Z,20.9
2019-01-14T07:20:11.247Z,20.9
2019-01-14T07:21:01.049Z,20.9
2019-01-14T07:21:51.091Z,21
2019-01-14T07:22:41.145Z,21
2019-01-14T07:23:31.426Z,21
2019-01-14T07:24:21.481Z,20.9
2019-01-14T07:25:12.071Z,20.9
2019-01-14T07:26:02.129Z,20.9
2019-01-14T07:26:52.183Z,20.9
2019-01-14T07:27:41.491Z,20.9
2019-01-14T07:28:32.325Z,20.9
2019-01-14T07:29:21.897Z,20.9
2019-01-14T07:30:11.370Z,20.9
2019-01-14T07:31:01.658Z,20.9
2019-01-14T07:31:51.751Z,20.9
2019-01-14T07:32:42.353Z,20.9
2019-01-14T07:33:32.353Z,20.9
2019-01-14T07:34:22.741Z,20.9
2019-01-14T07:35:12.209Z,20.9
2019-01-14T07:36:02.803Z,20.9
2019-01-14T07:36:52.837Z,20.9
2019-01-14T07:37:42.050Z,20.9
2019-01-14T07:38:33.000Z,20.9
2019-01-14T07:39:22.182Z,20.9
2019-01-14T07:40:13.097Z,20.9
2019-01-14T07:41:02.573Z,20.9
2019-01-14T07:41:53.167Z,20.9
2019-01-14T07:42:42.955Z,20.9
2019-01-14T07:43:33.015Z,20.9
2019-01-14T07:44:23.399Z,20.9
2019-01-14T07:45:12.890Z,20.9
2019-01-14T07:46:03.267Z,20.9
2019-01-14T07:46:53.572Z,20.9
2019-01-14T07:47:43.104Z,20.9
2019-01-14T07:48:33.344Z,20.9
2019-01-14T07:49:23.677Z,20.8
2019-01-14T07:50:13.757Z,20.9
2019-01-14T07:51:02.979Z,20.8
2019-01-14T07:51:53.629Z,20.8
2019-01-14T07:52:43.663Z,20.8
2019-01-14T07:53:33.411Z,20.8
2019-01-14T07:54:24.031Z,20.8
2019-01-14T07:55:14.201Z,20.8
2019-01-14T07:56:03.631Z,20.8
2019-01-14T07:56:53.646Z,20.8
2019-01-14T07:57:43.992Z,20.8
2019-01-14T07:58:34.344Z,20.8
2019-01-14T07:59:24.371Z,20.8
2019-01-14T08:00:14.189Z,20.8
2019-01-14T08:01:04.212Z,20.8
2019-01-14T08:01:54.250Z,20.8
2019-01-14T08:02:44.606Z,20.8
2019-01-14T08:03:34.667Z,20.8
2019-01-14T08:04:24.148Z,20.8
2019-01-14T08:05:14.213Z,20.8
2019-01-14T08:06:04.871Z,20.8
2019-01-14T08:06:54.873Z,20.8
2019-01-14T08:07:44.700Z,20.8
2019-01-14T08:08:34.973Z,20.8
2019-01-14T08:09:25.091Z,20.8
2019-01-14T08:10:15.153Z,20.8
2019-01-14T08:11:04.627Z,20.8
2019-01-14T08:11:55.222Z,20.8
2019-01-14T08:12:45.350Z,20.8
2019-01-14T08:13:35.005Z,20.8
2019-01-14T08:14:25.143Z,20.7
2019-01-14T08:15:14.873Z,20.7
2019-01-14T08:16:05.260Z,20.7
2019-01-14T08:16:55.595Z,20.7
2019-01-14T08:17:45.320Z,20.7
2019-01-14T08:18:35.683Z,20.7
2019-01-14T08:19:26.574Z,20.7
2019-01-14T08:20:15.523Z,20.7
2019-01-14T08:21:05.827Z,20.7
2019-01-14T08:21:55.582Z,20.7
2019-01-14T08:22:45.960Z,20.7
2019-01-14T08:23:35.955Z,20.7
2019-01-14T08:24:26.093Z,20.7
2019-01-14T08:25:16.086Z,20.7
2019-01-14T08:26:05.925Z,20.7
2019-01-14T08:26:56.187Z,20.7
2019-01-14T08:27:45.235Z,20.7
2019-01-14T08:28:35.769Z,20.6
2019-01-14T08:29:26.369Z,20.6
2019-01-14T08:30:16.531Z,20.6
2019-01-14T08:31:06.829Z,20.6
2019-01-14T08:31:56.537Z,20.6
2019-01-14T08:32:46.119Z,20.6
2019-01-14T08:33:36.691Z,20.6
2019-01-14T08:34:26.702Z,20.6
2019-01-14T08:35:16.777Z,20.6
2019-01-14T08:36:06.309Z,20.6
2019-01-14T08:37:03.796Z,20.6
2019-01-14T08:37:46.958Z,20.6
2019-01-14T08:38:36.976Z,20.6
2019-01-14T08:39:26.841Z,20.6
2019-01-14T08:40:16.277Z,20.6
2019-01-14T08:41:06.586Z,20.6
2019-01-14T08:41:56.936Z,20.6
2019-01-14T08:42:46.983Z,20.6
2019-01-14T08:43:37.353Z,20.6
2019-01-14T08:44:27.383Z,20.6
2019-01-14T08:45:17.183Z,20.6
2019-01-14T08:46:07.523Z,20.6
2019-01-14T08:46:57.602Z,20.6
2019-01-14T08:47:47.623Z,20.6
2019-01-14T08:49:50.218Z,20.6
2019-01-14T08:50:01.445Z,20.6
2019-01-14T08:50:52.043Z,20.6
2019-01-14T08:51:41.551Z,20.6
2019-01-14T08:52:30.734Z,20.6
2019-01-14T08:53:22.220Z,20.6
2019-01-14T08:54:11.528Z,20.6
2019-01-14T08:55:01.942Z,20.6
2019-01-14T08:55:51.899Z,20.5
2019-01-14T08:56:41.135Z,20.5
2019-01-14T08:57:32.062Z,20.5
2019-01-14T08:58:21.792Z,20.5
2019-01-14T08:59:11.924Z,20.5
2019-01-14T09:00:02.708Z,20.5
2019-01-14T09:00:51.963Z,20.5
2019-01-14T09:01:42.032Z,20.5
2019-01-14T09:02:32.285Z,20.5
2019-01-14T09:03:22.120Z,20.5
2019-01-14T09:04:11.901Z,20.5
2019-01-14T09:05:02.272Z,20.5
2019-01-14T09:05:52.612Z,20.5
2019-01-14T09:06:42.342Z,20.5
2019-01-14T09:07:32.414Z,20.5
2019-01-14T09:08:29.596Z,20.6
2019-01-14T09:09:12.782Z,20.6
2019-01-14T09:10:02.929Z,20.6
2019-01-14T09:10:52.617Z,20.6
2019-01-14T09:11:42.684Z,20.7
2019-01-14T09:12:32.464Z,20.7
2019-01-14T09:13:22.524Z,20.8
2019-01-14T09:14:13.121Z,20.7
2019-01-14T09:15:02.932Z,20.7
2019-01-14T09:15:53.677Z,20.7
2019-01-14T09:16:42.772Z,20.7
2019-01-14T09:17:32.796Z,20.6
2019-01-14T09:18:22.560Z,20.7
2019-01-14T09:19:12.919Z,20.7
2019-01-14T09:20:03.924Z,20.7
2019-01-14T09:20:53.074Z,20.6
2019-01-14T09:21:43.645Z,20.6
2019-01-14T09:22:32.859Z,20.6
2019-01-14T09:23:23.944Z,20.6
2019-01-14T09:24:13.626Z,20.6
2019-01-14T09:25:04.411Z,20.6
2019-01-14T09:26:00.601Z,20.6
2019-01-14T09:26:46.021Z,20.6
2019-01-14T09:27:33.748Z,20.7
2019-01-14T09:28:22.965Z,20.7
2019-01-14T09:29:14.126Z,20.8
2019-01-14T09:30:03.485Z,20.8
2019-01-14T09:30:53.705Z,20.8
2019-01-14T09:31:44.575Z,20.8
2019-01-14T09:32:34.075Z,20.8
2019-01-14T09:33:24.723Z,20.9
2019-01-14T09:34:14.405Z,20.8
2019-01-14T09:35:04.830Z,20.8
2019-01-14T09:35:54.838Z,20.8
2019-01-14T09:36:44.887Z,20.8
2019-01-14T09:37:34.696Z,20.8
2019-01-14T09:38:24.510Z,20.8
2019-01-14T09:39:14.617Z,20.8
2019-01-14T09:40:05.130Z,20.8
2019-01-14T09:40:55.463Z,20.8
2019-01-14T09:41:44.633Z,20.8
2019-01-14T09:42:35.232Z,20.8
2019-01-14T09:43:25.579Z,20.7
2019-01-14T09:44:15.404Z,20.8
2019-01-14T09:45:05.685Z,20.8
2019-01-14T09:45:54.917Z,20.8
2019-01-14T09:46:45.519Z,20.8
2019-01-14T09:47:35.852Z,20.9
2019-01-14T09:48:25.922Z,20.9
2019-01-14T09:49:15.732Z,20.9
2019-01-14T09:50:05.802Z,20.9
2019-01-14T09:50:55.799Z,20.9
2019-01-14T09:51:46.153Z,20.9
2019-01-14T09:52:36.037Z,20.9
2019-01-14T09:53:26.274Z,20.9
2019-01-14T09:54:16.089Z,20.9
2019-01-14T09:55:11.518Z,20.9
2019-01-14T09:55:56.139Z,20.9
2019-01-14T09:56:46.474Z,20.8
2019-01-14T09:57:37.709Z,20.8
2019-01-14T09:58:26.039Z,20.8
2019-01-14T09:59:16.634Z,20.8
2019-01-14T10:00:06.761Z,20.8
2019-01-14T10:00:56.757Z,20.8
2019-01-14T10:01:46.563Z,20.8
2019-01-14T10:02:36.021Z,20.9
2019-01-14T10:03:25.886Z,20.9
2019-01-14T10:04:15.359Z,20.9
2019-01-14T10:05:06.823Z,20.9
2019-01-14T10:07:50.667Z,20.9
2019-01-14T10:08:47.483Z,20.9
2019-01-14T10:09:29.951Z,20.9
2019-01-14T10:10:20.983Z,20.9
2019-01-14T10:11:10.066Z,20.9
2019-01-14T10:12:00.658Z,20.9
2019-01-14T10:12:50.745Z,20.9
2019-01-14T10:13:41.045Z,20.9
2019-01-14T10:14:30.875Z,20.9
2019-01-14T10:15:20.980Z,20.9
2019-01-14T10:16:11.230Z,20.9
2019-01-14T10:17:00.718Z,21
2019-01-14T10:17:51.108Z,20.9
2019-01-14T10:18:41.448Z,20.9
2019-01-14T10:19:31.450Z,20.9
2019-01-14T10:20:21.217Z,20.9
2019-01-14T10:21:11.295Z,20.9
2019-01-14T10:22:01.620Z,20.9
2019-01-14T10:22:51.462Z,20.9
2019-01-14T10:23:41.734Z,20.9
2019-01-14T10:24:31.582Z,20.9
2019-01-14T10:25:21.829Z,20.9
2019-01-14T10:26:11.902Z,20.9
2019-01-14T10:27:01.402Z,20.9
2019-01-14T10:27:51.804Z,21
2019-01-14T10:28:41.837Z,21
2019-01-14T10:29:32.119Z,21
2019-01-14T10:30:21.410Z,21
2019-01-14T10:31:12.244Z,21
2019-01-14T10:32:02.009Z,21
2019-01-14T10:32:51.806Z,21
2019-01-14T10:33:42.427Z,21
2019-01-14T10:34:31.748Z,21
2019-01-14T10:35:21.215Z,21
2019-01-14T10:36:12.561Z,21.1
2019-01-14T10:37:02.070Z,21
2019-01-14T10:37:52.432Z,21
2019-01-14T10:38:42.182Z,21.1
2019-01-14T10:39:32.267Z,21.1
2019-01-14T10:40:22.767Z,21.1
2019-01-14T10:41:12.407Z,21.1
2019-01-14T10:42:07.197Z,21.1
2019-01-14T10:42:52.730Z,21.1
2019-01-14T10:43:42.846Z,21.1
2019-01-14T10:44:32.868Z,21.1
2019-01-14T10:45:22.657Z,21.1
2019-01-14T10:46:12.961Z,21.1
2019-01-14T10:47:03.084Z,21.1
2019-01-14T10:47:53.094Z,21.1
2019-01-14T10:48:43.257Z,21.1
2019-01-14T10:49:33.200Z,21.1
2019-01-14T10:50:23.029Z,21.1
2019-01-14T10:51:13.032Z,21.1
2019-01-14T10:52:02.806Z,21.1
2019-01-14T10:53:43.457Z,21.1
2019-01-14T10:54:33.799Z,21.1
2019-01-14T10:55:23.882Z,21.1
2019-01-14T10:57:53.496Z,21.1
2019-01-14T11:02:55.227Z,21.2
2019-01-14T11:08:44.476Z,21.1
2019-01-14T11:09:34.828Z,21.1
2019-01-14T11:10:24.865Z,21.1
2019-01-14T11:13:43.975Z,21.2
2019-01-14T11:14:35.195Z,21.2
2019-01-14T11:15:24.927Z,21.2
2019-01-14T11:16:14.693Z,21.2
2019-01-14T11:18:44.872Z,21.2
2019-01-14T11:19:35.198Z,21.2
2019-01-14T11:20:25.072Z,21.2
2019-01-14T11:21:19.773Z,21.2
2019-01-14T11:22:05.372Z,21.2
2019-01-14T11:22:55.164Z,21.2
2019-01-14T11:23:45.760Z,21.2
2019-01-14T11:24:35.535Z,21.2
2019-01-14T11:25:25.613Z,21.2
2019-01-14T11:26:15.650Z,21.2
2019-01-14T11:27:05.965Z,21.2
2019-01-14T11:27:55.785Z,21.2
2019-01-14T11:28:45.857Z,21.2
2019-01-14T11:29:36.127Z,21.2
2019-01-14T11:30:26.257Z,21.2
2019-01-14T11:31:15.989Z,21.2
2019-01-14T11:32:06.360Z,21.2
2019-01-14T11:32:56.392Z,21.2
2019-01-14T11:33:46.292Z,21.2
2019-01-14T11:34:36.482Z,21.2
2019-01-14T11:35:26.565Z,21.3
2019-01-14T11:36:16.664Z,21.3
2019-01-14T11:37:06.424Z,21.3
2019-01-14T11:37:56.732Z,21.2
2019-01-14T11:38:46.777Z,21.3
2019-01-14T11:39:36.546Z,21.3
2019-01-14T11:40:26.689Z,21.3
2019-01-14T11:41:17.001Z,21.3
2019-01-14T11:42:06.742Z,21.3
2019-01-14T11:42:56.495Z,21.2
2019-01-14T11:43:47.122Z,21.3
2019-01-14T11:44:37.156Z,21.2
2019-01-14T11:45:26.673Z,21.2
2019-01-14T11:46:16.732Z,21.3
2019-01-14T11:47:06.901Z,21.3
2019-01-14T11:47:56.826Z,21.3
2019-01-14T11:48:46.886Z,21.3
2019-01-14T11:49:37.514Z,21.3
2019-01-14T11:50:27.028Z,21.3
2019-01-14T11:51:17.621Z,21.3
2019-01-14T11:52:07.416Z,21.3
2019-01-14T11:52:57.743Z,21.3
2019-01-14T11:53:47.213Z,21.3
2019-01-14T11:54:37.006Z,21.3
2019-01-14T11:55:27.348Z,21.3
2019-01-14T11:56:17.386Z,21.3
2019-01-14T11:57:09.422Z,21.3
2019-01-14T11:57:58.078Z,21.3
2019-01-14T11:58:47.820Z,21.3
2019-01-14T11:59:38.010Z,21.3
2019-01-14T12:00:27.963Z,21.3
2019-01-14T12:01:18.323Z,21.3
2019-01-14T12:02:07.785Z,21.3
2019-01-14T12:02:58.470Z,21.3
2019-01-14T12:03:48.190Z,21.3
2019-01-14T12:04:37.960Z,21.3
2019-01-14T12:05:28.627Z,21.3
2019-01-14T12:07:50.692Z,21.3
2019-01-14T12:08:55.802Z,21.3
2019-01-14T12:09:29.842Z,21.3
2019-01-14T12:10:20.525Z,21.3
2019-01-14T12:11:11.194Z,21.3
2019-01-14T12:11:59.793Z,21.3
2019-01-14T12:12:49.837Z,21.3
2019-01-14T12:13:40.399Z,21.4
2019-01-14T12:14:29.910Z,21.4
2019-01-14T12:15:20.752Z,21.4
2019-01-14T12:16:09.722Z,21.3
2019-01-14T12:17:00.855Z,21.3
2019-01-14T12:17:50.079Z,21.3
2019-01-14T12:18:40.969Z,21.3
2019-01-14T12:19:31.044Z,21.3
2019-01-14T12:20:20.527Z,21.3
2019-01-14T12:21:10.894Z,21.3
2019-01-14T12:22:00.372Z,21.3
2019-01-14T12:22:51.085Z,21.3
2019-01-14T12:23:40.472Z,21.3
2019-01-14T12:24:31.654Z,21.3
2019-01-14T12:25:22.915Z,21.3
2019-01-14T12:26:11.201Z,21.4
2019-01-14T12:27:01.046Z,21.4
2019-01-14T12:27:51.068Z,21.3
2019-01-14T12:28:41.087Z,21.3
2019-01-14T12:29:31.434Z,21.3
2019-01-14T12:30:21.756Z,21.3
2019-01-14T12:31:12.099Z,21.3
2019-01-14T12:32:01.591Z,21.3
2019-01-14T12:32:51.367Z,21.3
2019-01-14T12:33:40.866Z,21.3
2019-01-14T12:34:31.808Z,21.3
2019-01-14T12:35:21.066Z,21.3
2019-01-14T12:36:11.053Z,21.4
2019-01-14T12:37:02.000Z,21.4
2019-01-14T12:37:51.770Z,21.4
2019-01-14T12:38:42.124Z,21.4
2019-01-14T12:39:31.340Z,21.4
2019-01-14T12:40:20.856Z,21.4
2019-01-14T12:41:11.171Z,21.4
2019-01-14T12:42:01.227Z,21.4
2019-01-14T12:42:51.771Z,21.4
2019-01-14T12:43:41.355Z,21.4
2019-01-14T12:44:32.168Z,21.4
2019-01-14T12:45:22.275Z,21.4
2019-01-14T12:46:12.545Z,21.4
2019-01-14T12:47:02.323Z,21.4
2019-01-14T12:47:52.649Z,21.4
2019-01-14T12:48:42.710Z,21.4
2019-01-14T12:49:32.779Z,21.4
2019-01-14T12:50:23.114Z,21.4